Alexandria, Tennessee
Current Conditions -  °F | °C
As of 2:53 PM on Friday 24 Oct 2014 (Local Time) from KBNA Reporting Station
Scattered Clouds Scattered Clouds  
Wind Chill: 69°   Ceiling: Unl
Heat Index: 69°   Visibility: 10mi
Dew Point: 43°   Wind: 0mph
Humidity: 39%   Direction: NA
Pressure: 30.07"   Gusts: NA
Location:  36.08°N, 86.03°W
Report Text: KBNA 241953Z 00000KT 10SM FEW150 SCT250 21/06 A3007 RMK AO2 SLP180 T02060061
Loading
Personal Weather Stations






























Interactive Weather Map
Tropical Storm Tracking
New forecast layout! Learn more

10-Day Weather Forecast

Advertisements
Track Severe Weather on mobile